Time;durP1;ratioP1;P1;durP2;ratioP2;P2;SDS_P1;SDS_P2;PMS_P1;PMS_P2;Temp;Humidity;BMP_temperature;BMP_pressure;BME280_temperature;BME280_humidity;BME280_pressure;Samples;Min_cycle;Max_cycle;Signal;HPM_P1;HPM_P2
2023/01/24 00:00:25;;;;;;;26.87;16.17;;;2.30;99.90;;;;;;4973484;28;20202;-39
2023/01/24 00:02:51;;;;;;;24.10;15.63;;;2.30;99.90;;;;;;4991374;28;20180;-38
2023/01/24 00:05:17;;;;;;;26.07;16.23;;;2.30;99.90;;;;;;4989587;28;20203;-36
2023/01/24 00:07:42;;;;;;;22.77;15.20;;;2.30;99.90;;;;;;4991212;28;20574;-36
2023/01/24 00:10:09;;;;;;;23.03;14.57;;;2.30;99.90;;;;;;4981651;28;20270;-37
2023/01/24 00:12:34;;;;;;;22.63;15.33;;;2.30;99.90;;;;;;4976707;28;20172;-36
2023/01/24 00:15:00;;;;;;;25.03;14.67;;;2.30;99.90;;;;;;4990240;28;20259;-36
2023/01/24 00:17:26;;;;;;;24.37;14.30;;;2.30;99.90;;;;;;4985247;28;20200;-36
2023/01/24 00:19:52;;;;;;;24.77;15.23;;;2.30;99.90;;;;;;4977472;28;20319;-36
2023/01/24 00:22:18;;;;;;;22.90;14.60;;;2.30;99.90;;;;;;4978120;28;20214;-36
2023/01/24 00:24:44;;;;;;;23.53;15.07;;;2.30;99.90;;;;;;4994001;28;20227;-37
2023/01/24 00:27:09;;;;;;;22.43;14.07;;;2.30;99.90;;;;;;4993828;28;20203;-37
2023/01/24 00:29:35;;;;;;;25.07;14.97;;;2.30;99.90;;;;;;4993688;28;20180;-37
2023/01/24 00:32:01;;;;;;;25.93;15.53;;;2.30;99.90;;;;;;4961609;28;20199;-38
2023/01/24 00:34:26;;;;;;;22.73;14.43;;;2.30;99.90;;;;;;4993218;28;20175;-38
2023/01/24 00:36:52;;;;;;;23.87;15.37;;;2.30;99.90;;;;;;4994478;28;20203;-37
2023/01/24 00:39:18;;;;;;;23.73;14.93;;;2.30;99.90;;;;;;4981740;28;20187;-37
2023/01/24 00:41:44;;;;;;;21.50;14.53;;;2.30;99.90;;;;;;4976887;28;20175;-37
2023/01/24 00:44:10;;;;;;;21.83;14.40;;;2.30;99.90;;;;;;4961234;28;20188;-37
2023/01/24 00:46:36;;;;;;;25.23;15.50;;;2.30;99.90;;;;;;4976802;28;20207;-37
2023/01/24 00:49:01;;;;;;;23.13;14.90;;;2.30;99.90;;;;;;4976773;28;20250;-37
2023/01/24 00:51:27;;;;;;;23.13;14.60;;;2.30;99.90;;;;;;4994297;28;20270;-37
2023/01/24 00:53:53;;;;;;;21.53;14.87;;;2.30;99.90;;;;;;4993901;28;20187;-35
2023/01/24 00:56:19;;;;;;;22.57;14.33;;;2.30;99.90;;;;;;4961018;28;20180;-35
2023/01/24 00:58:46;;;;;;;20.47;13.30;;;2.30;99.90;;;;;;4960742;28;20203;-36
2023/01/24 01:01:11;;;;;;;25.63;15.10;;;2.30;99.90;;;;;;4977085;28;20188;-35
2023/01/24 01:03:37;;;;;;;21.90;14.60;;;2.30;99.90;;;;;;4994229;28;20248;-36
2023/01/24 01:06:11;;;;;;;20.57;14.10;;;2.30;99.90;;;;;;4992621;28;20344;-36
2023/01/24 01:08:37;;;;;;;22.83;14.03;;;2.30;99.90;;;;;;4993898;28;20566;-36
2023/01/24 01:11:03;;;;;;;23.40;14.13;;;2.30;99.90;;;;;;4973189;28;20187;-36
2023/01/24 01:13:29;;;;;;;23.10;14.10;;;2.20;99.90;;;;;;4973137;28;20223;-37
2023/01/24 01:16:08;;;;;;;20.90;13.53;;;2.20;99.90;;;;;;4960204;28;20195;-38
2023/01/24 01:18:34;;;;;;;22.63;13.77;;;2.20;99.90;;;;;;4992359;28;20192;-38
2023/01/24 01:21:00;;;;;;;20.83;13.70;;;2.30;99.90;;;;;;4989547;28;20185;-38
2023/01/24 01:23:26;;;;;;;22.40;14.60;;;2.30;99.90;;;;;;4974934;28;20188;-38
2023/01/24 01:25:52;;;;;;;22.10;13.43;;;2.20;99.90;;;;;;4974900;28;20295;-37
2023/01/24 01:28:18;;;;;;;23.97;14.67;;;2.20;99.90;;;;;;4960316;28;20260;-38
2023/01/24 01:30:51;;;;;;;21.30;12.77;;;2.20;99.90;;;;;;4960258;28;20227;-36
2023/01/24 01:33:17;;;;;;;23.17;14.20;;;2.20;99.90;;;;;;4976075;28;20243;-36
2023/01/24 01:35:43;;;;;;;20.77;13.40;;;2.20;99.90;;;;;;4959897;28;20176;-36
2023/01/24 01:38:09;;;;;;;20.07;13.33;;;2.20;99.90;;;;;;4960165;28;20561;-36
2023/01/24 01:40:35;;;;;;;21.70;13.50;;;2.20;99.90;;;;;;4990154;28;20214;-36
2023/01/24 01:43:01;;;;;;;21.00;13.60;;;2.20;99.90;;;;;;4976466;28;20652;-37
2023/01/24 01:45:40;;;;;;;21.80;13.23;;;2.30;99.90;;;;;;4991927;28;20240;-36
2023/01/24 01:48:33;;;;;;;21.83;13.90;;;2.20;99.90;;;;;;4991797;28;20211;-35
2023/01/24 01:51:20;;;;;;;22.43;13.90;;;2.20;99.90;;;;;;4975743;28;20188;-36
2023/01/24 01:53:59;;;;;;;20.90;13.53;;;2.20;99.90;;;;;;4992633;28;20206;-36
2023/01/24 01:56:33;;;;;;;21.53;13.23;;;2.20;99.90;;;;;;4991895;28;20192;-35
2023/01/24 01:59:05;;;;;;;20.97;13.20;;;2.20;99.90;;;;;;4972100;28;20198;-36
2023/01/24 02:01:31;;;;;;;22.53;14.73;;;2.20;99.90;;;;;;4973354;28;20234;-35
2023/01/24 02:04:07;;;;;;;23.30;14.63;;;2.20;99.90;;;;;;4975781;28;20219;-36
2023/01/24 02:06:54;;;;;;;21.77;13.83;;;2.20;99.90;;;;;;4975548;28;20237;-36
2023/01/24 02:09:23;;;;;;;22.07;12.97;;;2.20;99.90;;;;;;4974316;28;20191;-37
2023/01/24 02:11:51;;;;;;;22.13;14.07;;;2.20;99.90;;;;;;4988662;28;20597;-36
2023/01/24 02:17:05;;;;;;;24.63;14.27;;;2.20;99.90;;;;;;4978100;28;20278;-36
2023/01/24 02:19:46;;;;;;;23.90;14.10;;;2.20;99.90;;;;;;4991260;28;20314;-36
2023/01/24 02:22:25;;;;;;;24.13;14.57;;;2.20;99.90;;;;;;4991774;28;20396;-36
2023/01/24 02:25:36;;;;;;;24.40;15.03;;;2.20;99.90;;;;;;4988398;28;20188;-35
2023/01/24 02:28:03;;;;;;;24.23;14.23;;;2.20;99.90;;;;;;4988694;28;20281;-35
2023/01/24 02:30:30;;;;;;;22.27;14.20;;;2.20;99.90;;;;;;4959167;28;20179;-37
2023/01/24 02:32:57;;;;;;;21.87;13.77;;;2.20;99.90;;;;;;4975396;28;20176;-37
2023/01/24 02:35:25;;;;;;;25.33;15.10;;;2.20;99.90;;;;;;4991438;28;20188;-36
2023/01/24 02:37:51;;;;;;;26.63;15.30;;;2.10;99.90;;;;;;4975096;28;20262;-36
2023/01/24 02:40:17;;;;;;;24.43;14.53;;;2.20;99.90;;;;;;4991151;28;20184;-36
2023/01/24 02:42:44;;;;;;;26.27;15.13;;;2.10;99.90;;;;;;4963217;28;20180;-36
2023/01/24 02:45:25;;;;;;;24.70;14.93;;;2.20;99.90;;;;;;4974972;28;20231;-36
2023/01/24 02:47:53;;;;;;;24.03;15.33;;;2.20;99.90;;;;;;4988074;28;20287;-35
2023/01/24 02:50:23;;;;;;;23.50;15.70;;;2.20;99.90;;;;;;4991234;28;20183;-36
2023/01/24 02:55:33;;;;;;;22.13;14.70;;;2.10;99.90;;;;;;4981349;28;20270;-37
2023/01/24 02:58:06;;;;;;;23.87;14.37;;;2.10;99.90;;;;;;4992257;28;20289;-36
2023/01/24 03:00:40;;;;;;;22.10;13.93;;;2.10;99.90;;;;;;4974920;28;20233;-36
2023/01/24 03:03:08;;;;;;;23.60;13.33;;;2.10;99.90;;;;;;4975381;28;20277;-36
2023/01/24 03:05:56;;;;;;;24.53;14.13;;;2.10;99.90;;;;;;4974956;28;20565;-35
2023/01/24 03:08:25;;;;;;;22.83;14.20;;;2.20;99.90;;;;;;4974432;28;20227;-36
2023/01/24 03:10:54;;;;;;;19.73;12.73;;;2.20;99.90;;;;;;4984896;28;20179;-35
2023/01/24 03:35:17;;;;;;;23.33;14.83;;;2.20;99.90;;;;;;4990594;28;20218;-37
2023/01/24 03:40:29;;;;;;;24.57;13.77;;;2.10;99.90;;;;;;4989107;28;20179;-38
2023/01/24 03:42:55;;;;;;;24.77;14.67;;;2.10;99.90;;;;;;4973615;28;20183;-38
2023/01/24 03:45:30;;;;;;;24.13;14.60;;;2.10;99.90;;;;;;4973847;28;20672;-37
2023/01/24 03:47:58;;;;;;;23.17;15.07;;;2.10;99.90;;;;;;4974968;28;20201;-41
2023/01/24 03:53:16;;;;;;;23.17;14.10;;;2.20;99.90;;;;;;4994264;28;20176;-38
2023/01/24 03:55:44;;;;;;;23.27;13.77;;;2.20;99.90;;;;;;4962135;28;20180;-38
2023/01/24 03:58:11;;;;;;;22.07;14.27;;;2.20;99.90;;;;;;5029071;22;20274;-30
2023/01/24 04:00:38;;;;;;;25.77;15.07;;;2.20;99.90;;;;;;5015977;28;20181;-31
2023/01/24 04:03:17;;;;;;;24.40;14.83;;;2.10;99.90;;;;;;5016897;28;20176;-31
2023/01/24 04:05:43;;;;;;;24.17;14.20;;;2.20;99.90;;;;;;4988863;28;20207;-32
2023/01/24 04:08:10;;;;;;;23.33;15.10;;;2.10;99.90;;;;;;5018258;28;20179;-31
2023/01/24 04:10:37;;;;;;;24.33;14.90;;;2.10;99.90;;;;;;5023413;28;20229;-31
2023/01/24 04:13:03;;;;;;;24.03;14.23;;;2.20;99.90;;;;;;5027456;28;20268;-31
2023/01/24 04:15:30;;;;;;;23.80;15.37;;;2.20;99.90;;;;;;5026167;28;20179;-31
2023/01/24 04:18:16;;;;;;;24.37;14.23;;;2.20;99.90;;;;;;4989411;28;20234;-31
2023/01/24 04:20:42;;;;;;;22.50;14.27;;;2.20;99.90;;;;;;5047487;28;20217;-31
2023/01/24 04:23:10;;;;;;;23.23;14.07;;;2.20;99.90;;;;;;5036605;28;20184;-31
2023/01/24 04:25:37;;;;;;;27.00;15.20;;;2.20;99.90;;;;;;5036162;28;20206;-31
2023/01/24 04:28:03;;;;;;;26.13;15.73;;;2.20;99.90;;;;;;5036454;28;20186;-32
2023/01/24 04:30:31;;;;;;;21.73;13.57;;;2.20;99.90;;;;;;5043372;28;20182;-30
2023/01/24 04:32:58;;;;;;;25.73;14.70;;;2.20;99.90;;;;;;5011926;28;20182;-31
2023/01/24 04:35:28;;;;;;;23.13;14.33;;;2.20;99.90;;;;;;5025457;28;20186;-30
2023/01/24 04:38:00;;;;;;;22.70;13.77;;;2.20;99.90;;;;;;5002998;28;20184;-29
2023/01/24 04:40:59;;;;;;;25.00;14.57;;;2.20;99.90;;;;;;5044019;28;20189;-31
2023/01/24 04:43:32;;;;;;;23.53;14.87;;;2.20;99.90;;;;;;5035025;28;20190;-31
2023/01/24 04:46:06;;;;;;;26.53;15.20;;;2.20;99.90;;;;;;5035056;28;20229;-31
2023/01/24 04:48:50;;;;;;;25.70;15.63;;;2.20;99.90;;;;;;5035469;28;20213;-31
2023/01/24 04:51:23;;;;;;;27.23;15.87;;;2.20;99.90;;;;;;5051615;28;20263;-30
2023/01/24 04:53:53;;;;;;;25.03;15.73;;;2.20;99.90;;;;;;5035630;28;20265;-31
2023/01/24 04:56:40;;;;;;;28.23;15.73;;;2.20;99.90;;;;;;5048682;28;20186;-31
2023/01/24 04:59:06;;;;;;;27.40;16.23;;;2.20;99.90;;;;;;5010975;28;20248;-31
2023/01/24 05:01:36;;;;;;;25.17;15.00;;;2.20;99.90;;;;;;5012537;28;20178;-31
2023/01/24 05:04:10;;;;;;;27.43;14.77;;;2.20;99.90;;;;;;5014922;28;20217;-31
2023/01/24 05:06:36;;;;;;;24.23;15.13;;;2.20;99.90;;;;;;5034214;28;20256;-31
2023/01/24 05:09:03;;;;;;;23.20;13.70;;;2.20;99.90;;;;;;5017094;28;20198;-31
2023/01/24 05:11:45;;;;;;;24.80;14.77;;;2.20;99.90;;;;;;5027159;28;20299;-31
2023/01/24 05:14:12;;;;;;;24.50;14.63;;;2.20;99.90;;;;;;5032061;28;20206;-31
2023/01/24 05:16:38;;;;;;;24.80;15.60;;;2.20;99.90;;;;;;5015567;28;20186;-31
2023/01/24 05:19:06;;;;;;;26.17;15.93;;;2.20;99.90;;;;;;5033118;28;20198;-31
2023/01/24 05:21:32;;;;;;;25.33;14.93;;;2.10;99.90;;;;;;5035460;28;20192;-31
2023/01/24 05:23:58;;;;;;;23.77;14.33;;;2.10;99.90;;;;;;5034632;28;20589;-30
2023/01/24 05:26:26;;;;;;;23.67;14.57;;;2.20;99.90;;;;;;5018555;28;20213;-31
2023/01/24 05:28:53;;;;;;;23.43;14.77;;;2.20;99.90;;;;;;5016969;28;20292;-31
2023/01/24 05:31:19;;;;;;;26.50;14.53;;;2.20;99.90;;;;;;5035008;28;20212;-30
2023/01/24 05:33:45;;;;;;;24.43;14.40;;;2.20;99.90;;;;;;5039044;28;20178;-30
2023/01/24 05:36:14;;;;;;;24.70;15.33;;;2.20;99.90;;;;;;4999202;28;20186;-31
2023/01/24 05:38:41;;;;;;;27.60;15.17;;;2.20;99.90;;;;;;5042123;28;20292;-30
2023/01/24 05:41:10;;;;;;;26.97;16.03;;;2.20;99.90;;;;;;5023282;28;20203;-31
2023/01/24 05:43:37;;;;;;;23.17;15.33;;;2.10;99.90;;;;;;5034565;28;20212;-31
2023/01/24 05:46:12;;;;;;;23.30;14.83;;;2.10;99.90;;;;;;5051683;28;20285;-30
2023/01/24 05:48:46;;;;;;;28.93;15.97;;;2.10;99.90;;;;;;5015268;28;20211;-31
2023/01/24 05:51:15;;;;;;;25.70;15.80;;;2.10;99.90;;;;;;5020015;28;20214;-31
2023/01/24 05:53:42;;;;;;;24.70;14.93;;;2.10;99.90;;;;;;5032843;28;20236;-31
2023/01/24 05:56:14;;;;;;;25.30;15.43;;;2.10;99.90;;;;;;5015710;28;20193;-30
2023/01/24 05:58:41;;;;;;;24.43;14.37;;;2.10;99.90;;;;;;5014804;28;20260;-31
2023/01/24 06:01:16;;;;;;;26.30;15.37;;;2.10;99.90;;;;;;5024574;28;20186;-31
2023/01/24 06:03:48;;;;;;;25.83;15.40;;;2.10;99.90;;;;;;5034711;28;20199;-30
2023/01/24 06:06:18;;;;;;;24.37;14.70;;;2.10;99.90;;;;;;5009167;28;20297;-31
2023/01/24 06:08:44;;;;;;;22.97;14.40;;;2.20;99.90;;;;;;5021587;28;20191;-31
2023/01/24 06:11:19;;;;;;;23.43;14.70;;;2.20;99.90;;;;;;5027327;28;20186;-30
2023/01/24 06:13:48;;;;;;;22.07;14.23;;;2.20;99.90;;;;;;5023564;28;20198;-30
2023/01/24 06:16:17;;;;;;;23.63;14.27;;;2.20;99.90;;;;;;5031552;28;20178;-31
2023/01/24 06:18:43;;;;;;;25.00;14.40;;;2.20;99.90;;;;;;5009296;28;20209;-30
2023/01/24 06:21:34;;;;;;;25.07;14.53;;;2.20;99.90;;;;;;5032100;28;20233;-31
2023/01/24 06:24:00;;;;;;;22.30;14.17;;;2.20;99.90;;;;;;5019959;28;20601;-31
2023/01/24 06:26:43;;;;;;;26.00;14.93;;;2.20;99.90;;;;;;5029669;28;20198;-31
2023/01/24 06:29:10;;;;;;;24.33;14.30;;;2.20;99.90;;;;;;5013964;28;20230;-31
2023/01/24 06:32:09;;;;;;;31.37;15.33;;;2.20;99.90;;;;;;5031386;28;20175;-30
2023/01/24 06:35:07;;;;;;;24.37;14.33;;;2.20;99.90;;;;;;5040856;28;20201;-30
2023/01/24 06:37:52;;;;;;;23.87;14.67;;;2.20;99.90;;;;;;5034513;28;20174;-31
2023/01/24 06:40:22;;;;;;;26.33;15.23;;;2.20;99.90;;;;;;5026347;28;20206;-31
2023/01/24 06:42:49;;;;;;;27.37;16.47;;;2.20;99.90;;;;;;4997837;28;20240;-30
2023/01/24 06:45:15;;;;;;;24.07;15.23;;;2.20;99.90;;;;;;5031360;28;20226;-30
2023/01/24 06:47:42;;;;;;;25.60;15.47;;;2.20;99.90;;;;;;5042881;28;20174;-30
2023/01/24 06:50:20;;;;;;;27.13;15.43;;;2.20;99.90;;;;;;5025891;28;20213;-30
2023/01/24 06:52:48;;;;;;;25.27;15.87;;;2.20;99.90;;;;;;5023067;28;20175;-31
2023/01/24 06:55:14;;;;;;;24.60;15.37;;;2.20;99.90;;;;;;5005552;28;20181;-32
2023/01/24 06:57:40;;;;;;;24.37;14.67;;;2.20;99.90;;;;;;5018559;28;20181;-30
2023/01/24 07:00:07;;;;;;;26.67;15.97;;;2.20;99.90;;;;;;5014425;28;20210;-31
2023/01/24 07:02:33;;;;;;;25.40;15.50;;;2.20;99.90;;;;;;4997631;28;20182;-31
2023/01/24 07:04:58;;;;;;;25.13;16.10;;;2.20;99.90;;;;;;5030134;28;20182;-31
2023/01/24 07:07:24;;;;;;;23.87;14.87;;;2.20;99.90;;;;;;5031537;28;20189;-32
2023/01/24 07:09:50;;;;;;;23.10;14.77;;;2.20;99.90;;;;;;5046329;28;20288;-32
2023/01/24 07:12:16;;;;;;;24.77;14.60;;;2.20;99.90;;;;;;5029722;28;20186;-32
2023/01/24 07:14:42;;;;;;;23.43;14.73;;;2.20;99.90;;;;;;5033192;28;20178;-31
2023/01/24 07:17:08;;;;;;;24.63;14.87;;;2.30;99.90;;;;;;5033388;28;20222;-32
2023/01/24 07:19:34;;;;;;;26.13;15.60;;;2.20;99.90;;;;;;5016592;28;20240;-32
2023/01/24 07:22:00;;;;;;;25.37;16.47;;;2.20;99.90;;;;;;5033390;28;20280;-31
2023/01/24 07:24:29;;;;;;;24.57;14.90;;;2.20;99.90;;;;;;5032549;28;20181;-31
2023/01/24 07:26:56;;;;;;;22.63;14.77;;;2.20;99.90;;;;;;5049650;28;20296;-31
2023/01/24 07:29:22;;;;;;;23.57;15.47;;;2.20;99.90;;;;;;5032921;28;20297;-31
2023/01/24 07:31:49;;;;;;;25.87;15.93;;;2.20;99.90;;;;;;5017298;28;20228;-31
2023/01/24 07:34:16;;;;;;;25.37;15.83;;;2.20;99.90;;;;;;5033441;28;20177;-32
2023/01/24 07:36:43;;;;;;;27.43;15.93;;;2.20;99.90;;;;;;5017044;28;20185;-32
2023/01/24 07:39:09;;;;;;;25.73;15.77;;;2.30;99.90;;;;;;5036651;28;20213;-31
2023/01/24 07:41:36;;;;;;;27.57;17.07;;;2.30;99.90;;;;;;5040279;28;20213;-31
2023/01/24 07:44:04;;;;;;;30.67;17.50;;;2.20;99.90;;;;;;5013944;28;20193;-31
2023/01/24 07:46:34;;;;;;;29.00;17.07;;;2.20;99.90;;;;;;5013841;28;20213;-32
2023/01/24 07:49:00;;;;;;;26.97;16.13;;;2.20;99.90;;;;;;5031297;28;20198;-31
2023/01/24 07:51:27;;;;;;;27.87;16.60;;;2.20;99.90;;;;;;5013941;28;20202;-32
2023/01/24 07:53:53;;;;;;;28.53;16.83;;;2.20;99.90;;;;;;5014405;28;20220;-31
2023/01/24 07:56:18;;;;;;;27.70;16.43;;;2.20;99.90;;;;;;5032534;28;20214;-32
2023/01/24 07:58:44;;;;;;;29.93;17.20;;;2.30;99.90;;;;;;5032824;28;20213;-32
2023/01/24 08:01:19;;;;;;;26.43;15.80;;;2.20;99.90;;;;;;5014656;28;20209;-31
2023/01/24 08:03:45;;;;;;;25.20;15.87;;;2.30;99.90;;;;;;5018673;28;20208;-31
2023/01/24 08:06:11;;;;;;;26.20;16.30;;;2.30;99.90;;;;;;5039331;28;20207;-32
2023/01/24 08:08:36;;;;;;;24.83;15.33;;;2.30;99.90;;;;;;5047079;28;20213;-30
2023/01/24 08:11:02;;;;;;;28.73;17.83;;;2.30;99.90;;;;;;5042418;28;20260;-30
2023/01/24 08:13:28;;;;;;;26.53;16.33;;;2.30;99.90;;;;;;5029395;28;20205;-31
2023/01/24 08:15:54;;;;;;;27.03;16.53;;;2.30;99.90;;;;;;5020741;28;20206;-30
2023/01/24 08:18:20;;;;;;;28.57;16.10;;;2.30;99.90;;;;;;5017840;28;20202;-32
2023/01/24 08:20:46;;;;;;;25.53;15.90;;;2.30;99.90;;;;;;5049383;28;20177;-31
2023/01/24 08:23:12;;;;;;;24.27;15.37;;;2.30;99.90;;;;;;5041276;28;20190;-31
2023/01/24 08:25:39;;;;;;;24.73;14.63;;;2.30;99.90;;;;;;5041346;28;20201;-32
2023/01/24 08:28:05;;;;;;;21.37;14.53;;;2.30;99.90;;;;;;5031354;28;20178;-31
2023/01/24 08:30:30;;;;;;;26.00;15.80;;;2.40;99.90;;;;;;5046472;28;20201;-31
2023/01/24 08:33:04;;;;;;;26.50;15.23;;;2.40;99.90;;;;;;5019340;28;20170;-31
2023/01/24 08:35:31;;;;;;;25.57;15.10;;;2.40;99.90;;;;;;5046557;28;20203;-30
2023/01/24 08:37:57;;;;;;;23.10;14.60;;;2.40;99.90;;;;;;5050497;28;20251;-30
2023/01/24 08:40:23;;;;;;;22.77;14.60;;;2.40;99.90;;;;;;5025008;28;20178;-30
2023/01/24 08:42:50;;;;;;;23.83;15.13;;;2.40;99.90;;;;;;5030829;28;20190;-30
2023/01/24 08:45:16;;;;;;;24.93;14.63;;;2.40;99.90;;;;;;5037259;28;20181;-31
2023/01/24 08:47:42;;;;;;;23.17;15.17;;;2.40;99.90;;;;;;5054619;28;20192;-30
2023/01/24 08:50:09;;;;;;;23.80;14.87;;;2.40;99.90;;;;;;5051873;28;20276;-31
2023/01/24 08:52:35;;;;;;;25.27;15.20;;;2.40;99.90;;;;;;5051998;28;20253;-30
2023/01/24 08:55:00;;;;;;;23.67;14.67;;;2.40;99.90;;;;;;5035246;28;20261;-31
2023/01/24 08:57:26;;;;;;;22.27;13.93;;;2.40;99.90;;;;;;5034914;28;20177;-30
2023/01/24 08:59:53;;;;;;;21.97;14.07;;;2.40;99.90;;;;;;5053341;28;20215;-30
2023/01/24 09:02:19;;;;;;;22.10;13.97;;;2.40;99.90;;;;;;5052522;28;20261;-30
2023/01/24 09:04:44;;;;;;;22.97;13.97;;;2.50;99.90;;;;;;5035369;28;20280;-31
2023/01/24 09:07:11;;;;;;;22.37;14.13;;;2.50;99.90;;;;;;5052272;28;20209;-30
2023/01/24 09:09:37;;;;;;;22.77;13.83;;;2.50;99.90;;;;;;5031794;28;20203;-30
2023/01/24 09:12:03;;;;;;;23.33;14.07;;;2.50;99.90;;;;;;5030200;28;20181;-30
2023/01/24 09:14:29;;;;;;;25.20;14.60;;;2.50;99.90;;;;;;5035365;28;20176;-30
2023/01/24 09:16:54;;;;;;;23.07;14.37;;;2.50;99.90;;;;;;5035492;28;20182;-30
2023/01/24 09:19:20;;;;;;;23.67;13.80;;;2.50;99.90;;;;;;5051858;28;20244;-30
2023/01/24 09:21:51;;;;;;;20.70;13.53;;;2.50;99.90;;;;;;5053175;28;20186;-30
2023/01/24 09:24:18;;;;;;;23.57;14.30;;;2.50;99.90;;;;;;5035246;28;20281;-30
2023/01/24 09:26:44;;;;;;;23.53;14.90;;;2.50;99.90;;;;;;5052989;28;20206;-30
2023/01/24 09:29:10;;;;;;;22.70;13.37;;;2.50;99.90;;;;;;5034855;28;20205;-30
2023/01/24 09:31:36;;;;;;;21.60;13.60;;;2.60;99.90;;;;;;5035150;28;20245;-31
2023/01/24 09:34:02;;;;;;;22.00;14.53;;;2.60;99.90;;;;;;5051711;28;20224;-30
2023/01/24 09:36:29;;;;;;;20.87;12.87;;;2.60;99.90;;;;;;5052855;28;20186;-31
2023/01/24 09:38:56;;;;;;;21.10;13.27;;;2.60;99.90;;;;;;5044392;28;20320;-30
2023/01/24 09:41:28;;;;;;;21.63;12.90;;;2.60;99.90;;;;;;5043261;28;20681;-31
2023/01/24 09:44:00;;;;;;;22.57;14.20;;;2.60;99.90;;;;;;5052914;28;20170;-30
2023/01/24 09:46:45;;;;;;;21.60;13.53;;;2.70;99.90;;;;;;5050479;28;20701;-31
2023/01/24 09:49:14;;;;;;;23.20;12.93;;;2.70;99.90;;;;;;5052651;28;20221;-31
2023/01/24 09:51:48;;;;;;;23.37;14.40;;;2.70;99.90;;;;;;5018363;28;20174;-30
2023/01/24 09:54:55;;;;;;;23.17;13.83;;;2.70;99.90;;;;;;5034694;28;20202;-30
2023/01/24 09:57:49;;;;;;;22.77;13.43;;;2.70;99.90;;;;;;4964562;28;20196;-30
2023/01/24 10:00:21;;;;;;;21.70;13.83;;;2.70;99.90;;;;;;5051726;28;20312;-30
2023/01/24 10:02:46;;;;;;;24.03;14.43;;;2.70;99.90;;;;;;5052450;28;20170;-30
2023/01/24 10:05:15;;;;;;;24.07;14.60;;;2.70;99.90;;;;;;5034469;28;20235;-30
2023/01/24 10:07:56;;;;;;;23.93;13.77;;;2.80;99.90;;;;;;5034366;28;20192;-31
2023/01/24 10:10:43;;;;;;;24.07;13.17;;;2.80;99.90;;;;;;5026133;28;20183;-30
2023/01/24 10:13:39;;;;;;;21.20;13.30;;;2.80;99.90;;;;;;5052753;28;20166;-30
2023/01/24 10:16:05;;;;;;;20.90;12.93;;;2.80;99.90;;;;;;5034268;28;20182;-31
2023/01/24 10:18:54;;;;;;;23.83;13.47;;;2.80;99.90;;;;;;5052207;28;20201;-30
2023/01/24 10:21:58;;;;;;;21.10;13.77;;;2.80;99.90;;;;;;5034319;28;20189;-30
2023/01/24 10:24:30;;;;;;;20.97;13.27;;;2.80;99.90;;;;;;5033898;28;20182;-30
2023/01/24 10:26:56;;;;;;;23.80;13.77;;;2.80;99.90;;;;;;5050895;28;20217;-30
2023/01/24 10:29:30;;;;;;;20.17;13.03;;;2.90;99.90;;;;;;5053048;28;20261;-33
2023/01/24 10:32:14;;;;;;;21.77;13.50;;;2.90;99.90;;;;;;5050784;28;20178;-32
2023/01/24 10:34:44;;;;;;;23.73;13.83;;;2.90;99.90;;;;;;5034244;28;20174;-32
2023/01/24 10:37:10;;;;;;;26.90;14.53;;;2.90;99.90;;;;;;5051908;28;20291;-32
2023/01/24 10:39:38;;;;;;;20.27;13.70;;;2.90;99.90;;;;;;5030326;28;20301;-32
2023/01/24 10:42:20;;;;;;;23.80;13.50;;;3.00;99.90;;;;;;5025368;28;20615;-33
2023/01/24 10:44:47;;;;;;;20.73;13.63;;;3.00;99.90;;;;;;5032144;28;20658;-32
2023/01/24 10:47:18;;;;;;;22.27;13.73;;;3.00;99.90;;;;;;5014125;28;20210;-32
2023/01/24 10:49:58;;;;;;;22.20;13.17;;;3.00;99.90;;;;;;5031842;28;20205;-33
2023/01/24 10:52:25;;;;;;;21.57;12.40;;;3.00;99.90;;;;;;5031944;28;20173;-34
2023/01/24 10:54:56;;;;;;;22.73;12.77;;;3.00;99.90;;;;;;5013994;28;20214;-33
2023/01/24 10:57:40;;;;;;;22.03;12.60;;;3.00;99.90;;;;;;5031774;28;20193;-33
2023/01/24 11:00:27;;;;;;;19.50;12.33;;;3.00;99.90;;;;;;5013720;28;20221;-33
2023/01/24 11:02:56;;;;;;;19.53;12.33;;;3.00;99.90;;;;;;5031887;28;20183;-31
2023/01/24 11:05:23;;;;;;;20.60;12.63;;;3.00;99.90;;;;;;4997042;28;20239;-31
2023/01/24 11:07:58;;;;;;;22.43;13.00;;;3.10;99.90;;;;;;5016722;28;20194;-30
2023/01/24 11:10:34;;;;;;;24.53;12.53;;;3.10;99.90;;;;;;5025043;28;20316;-31
2023/01/24 11:13:04;;;;;;;21.53;12.57;;;3.20;99.90;;;;;;5043562;28;20253;-30
2023/01/24 11:15:32;;;;;;;21.43;13.53;;;3.20;99.90;;;;;;5001264;28;20186;-30
2023/01/24 11:18:20;;;;;;;21.63;12.33;;;3.20;99.90;;;;;;5024780;28;20196;-31
2023/01/24 11:20:46;;;;;;;21.50;12.83;;;3.20;99.90;;;;;;5021106;28;20197;-31
2023/01/24 11:23:18;;;;;;;19.10;12.23;;;3.30;99.90;;;;;;5021751;28;20187;-32
2023/01/24 11:25:56;;;;;;;21.17;12.37;;;3.30;99.90;;;;;;5039672;28;20204;-31
2023/01/24 11:28:24;;;;;;;20.83;12.73;;;3.30;99.90;;;;;;5030258;28;20289;-32
2023/01/24 11:30:50;;;;;;;21.90;12.80;;;3.30;99.90;;;;;;5021778;28;20224;-31
2023/01/24 11:33:34;;;;;;;18.63;11.87;;;3.30;99.90;;;;;;5029575;28;20170;-31
2023/01/24 11:36:07;;;;;;;20.90;12.07;;;3.30;99.90;;;;;;5012982;28;20255;-32
2023/01/24 11:38:42;;;;;;;19.70;12.37;;;3.30;99.90;;;;;;5028151;28;20210;-32
2023/01/24 11:41:34;;;;;;;19.97;11.83;;;3.30;99.90;;;;;;5023162;28;20176;-31
2023/01/24 11:44:25;;;;;;;19.50;12.17;;;3.40;99.90;;;;;;5039945;28;20216;-32
2023/01/24 11:47:14;;;;;;;20.23;12.07;;;3.40;99.90;;;;;;5041291;28;20314;-31
2023/01/24 11:50:01;;;;;;;18.23;11.67;;;3.40;99.90;;;;;;5023503;28;20696;-31
2023/01/24 11:52:40;;;;;;;19.13;12.20;;;3.40;99.90;;;;;;5030940;28;20178;-31
2023/01/24 11:55:36;;;;;;;18.60;11.57;;;3.40;99.90;;;;;;5034691;28;20207;-31
2023/01/24 11:58:34;;;;;;;20.33;12.50;;;3.40;99.90;;;;;;5038703;28;20178;-30
2023/01/24 12:01:21;;;;;;;18.37;11.07;;;3.40;99.90;;;;;;4986800;28;20183;-31
2023/01/24 12:04:24;;;;;;;19.00;11.37;;;3.40;99.90;;;;;;5018526;28;20174;-31
2023/01/24 12:06:53;;;;;;;18.23;11.03;;;3.40;99.90;;;;;;5033836;28;20213;-31
2023/01/24 12:09:29;;;;;;;19.80;12.30;;;3.30;99.90;;;;;;5038713;28;20199;-31
2023/01/24 12:12:17;;;;;;;17.07;11.93;;;3.40;99.90;;;;;;5024290;28;20178;-32
2023/01/24 12:15:06;;;;;;;15.47;11.20;;;3.40;99.90;;;;;;5045242;28;20176;-31
2023/01/24 12:17:46;;;;;;;16.23;10.97;;;3.40;99.90;;;;;;5053831;28;20201;-31
2023/01/24 12:20:22;;;;;;;20.97;12.00;;;3.40;99.90;;;;;;5051427;28;20196;-32
2023/01/24 12:22:53;;;;;;;18.57;11.27;;;3.40;99.90;;;;;;5054908;28;20251;-32
2023/01/24 12:25:30;;;;;;;16.60;11.17;;;3.40;99.90;;;;;;5034523;28;20178;-31
2023/01/24 12:27:59;;;;;;;19.03;11.77;;;3.40;99.90;;;;;;5042565;28;20170;-30
2023/01/24 12:30:40;;;;;;;17.70;11.20;;;3.50;99.90;;;;;;5035824;28;20228;-30
2023/01/24 12:33:14;;;;;;;18.20;10.67;;;3.50;99.90;;;;;;5033140;28;20167;-31
2023/01/24 12:35:45;;;;;;;20.80;11.63;;;3.50;99.90;;;;;;5028209;28;20191;-31
2023/01/24 12:38:17;;;;;;;17.20;10.57;;;3.50;99.90;;;;;;5022203;28;20544;-32
2023/01/24 12:41:09;;;;;;;17.60;10.97;;;3.50;99.90;;;;;;5010325;28;20178;-32
2023/01/24 12:43:45;;;;;;;20.53;11.20;;;3.50;99.90;;;;;;5026471;28;20177;-31
2023/01/24 12:46:24;;;;;;;20.73;11.37;;;3.50;99.90;;;;;;5043465;28;20197;-32
2023/01/24 12:49:02;;;;;;;18.50;11.67;;;3.50;99.90;;;;;;5042268;28;20201;-31
2023/01/24 12:51:42;;;;;;;18.30;11.13;;;3.40;99.90;;;;;;5034278;28;20208;-31
2023/01/24 12:54:14;;;;;;;17.70;11.10;;;3.40;99.90;;;;;;5026844;28;20174;-31
2023/01/24 12:57:04;;;;;;;17.03;10.50;;;3.40;99.90;;;;;;5026587;28;20182;-32
2023/01/24 12:59:34;;;;;;;15.23;10.03;;;3.40;99.90;;;;;;5023507;28;20214;-31
2023/01/24 13:02:23;;;;;;;15.73;10.63;;;3.50;99.90;;;;;;5022410;28;20210;-32
2023/01/24 13:04:57;;;;;;;16.13;10.50;;;3.50;99.90;;;;;;5029953;28;20261;-31
2023/01/24 13:07:33;;;;;;;14.97;9.93;;;3.50;99.90;;;;;;5007021;28;20233;-31
2023/01/24 13:10:20;;;;;;;18.37;11.27;;;3.50;99.90;;;;;;5032925;28;20260;-31
2023/01/24 13:12:47;;;;;;;18.27;11.03;;;3.50;99.90;;;;;;5022456;28;20174;-31
2023/01/24 13:15:26;;;;;;;16.93;10.37;;;3.50;99.90;;;;;;5027609;28;20181;-32
2023/01/24 13:18:35;;;;;;;16.43;10.47;;;3.50;99.90;;;;;;5016326;28;20175;-32
2023/01/24 13:21:25;;;;;;;15.60;10.00;;;3.50;99.90;;;;;;4996190;28;20186;-32
2023/01/24 13:24:19;;;;;;;15.63;10.07;;;3.50;99.90;;;;;;5039660;28;20182;-31
2023/01/24 13:27:16;;;;;;;15.43;10.10;;;3.50;99.90;;;;;;5024166;28;20540;-31
2023/01/24 13:29:58;;;;;;;15.63;9.83;;;3.50;99.90;;;;;;5043466;28;20197;-31
2023/01/24 13:32:25;;;;;;;14.30;9.17;;;3.50;99.90;;;;;;5042000;28;20181;-31
2023/01/24 13:34:57;;;;;;;14.60;9.47;;;3.50;99.90;;;;;;5022524;28;20190;-31